Time;durP1;ratioP1;P1;durP2;ratioP2;P2;SDS_P1;SDS_P2;PMS_P1;PMS_P2;Temp;Humidity;BMP_temperature;BMP_pressure;BME280_temperature;BME280_humidity;BME280_pressure;Samples;Min_cycle;Max_cycle;Signal;HPM_P1;HPM_P2
2021/03/22 00:02:22;;;;;;;;;;;;;;;-0.13;100.00;91848.75;5010800;28;20054;-75
2021/03/22 00:04:49;;;;;;;5.05;3.08;;;;;;;-0.23;100.00;91850.78;5010390;28;20302;-75
2021/03/22 00:07:15;;;;;;;4.90;1.30;;;;;;;-0.44;100.00;91829.59;5005814;28;20544;-76
2021/03/22 00:09:41;;;;;;;3.28;1.20;;;;;;;-0.23;100.00;91838.16;4990969;28;20043;-75
2021/03/22 00:12:08;;;;;;;;;;;;;;;-0.41;100.00;91830.00;4991133;28;20050;-76
2021/03/22 00:14:34;;;;;;;1.88;1.50;;;;;;;-0.49;100.00;91829.31;4990726;28;19928;-76
2021/03/22 00:17:01;;;;;;;;;;;;;;;-0.55;100.00;91833.34;4991155;28;20495;-76
2021/03/22 00:19:29;;;;;;;2.42;1.35;;;;;;;-0.58;100.00;91829.44;4990791;28;20037;-76
2021/03/22 00:21:56;;;;;;;1.77;1.67;;;;;;;-0.60;100.00;91836.38;4990554;28;20049;-76
2021/03/22 00:24:22;;;;;;;1.75;1.33;;;;;;;-0.58;100.00;91824.41;4990355;28;20050;-76
2021/03/22 00:26:48;;;;;;;0.85;0.60;;;;;;;-0.57;100.00;91841.09;4990436;28;20058;-76
2021/03/22 00:29:14;;;;;;;;;;;;;;;-0.38;100.00;91844.00;4990917;28;20054;-76
2021/03/22 00:31:41;;;;;;;1.02;0.70;;;;;;;-0.25;100.00;91845.91;4990756;28;20335;-76
2021/03/22 00:34:07;;;;;;;1.42;0.85;;;;;;;-0.18;100.00;91848.50;4990488;28;20431;-76
2021/03/22 00:36:34;;;;;;;2.22;1.02;;;;;;;-0.27;100.00;91828.41;4990125;28;20053;-76
2021/03/22 00:39:00;;;;;;;2.92;1.15;;;;;;;-0.17;100.00;91840.75;4990119;28;20054;-76
2021/03/22 00:41:26;;;;;;;;;;;;;;;-0.18;100.00;91833.38;4990904;28;20121;-76
2021/03/22 00:43:53;;;;;;;1.50;0.88;;;;;;;-0.33;100.00;91831.66;4990281;28;19922;-76
2021/03/22 00:46:19;;;;;;;;;;;;;;;-0.24;100.00;91819.69;4990550;28;20113;-76
2021/03/22 00:48:45;;;;;;;1.05;0.75;;;;;;;-0.44;100.00;91809.41;4990368;28;20292;-76
2021/03/22 00:51:11;;;;;;;;;;;;;;;-0.54;100.00;91810.44;4990645;28;20050;-76
2021/03/22 00:53:38;;;;;;;1.85;0.95;;;;;;;-0.59;100.00;91791.78;4990303;28;19926;-76
2021/03/22 00:56:05;;;;;;;3.60;1.13;;;;;;;-0.50;100.00;91800.81;4990266;28;20053;-76
2021/03/22 00:58:31;;;;;;;2.35;1.35;;;;;;;-0.50;100.00;91790.72;4989751;28;20050;-76
2021/03/22 01:00:59;;;;;;;2.80;0.60;;;;;;;-0.51;100.00;91796.69;4990237;28;20425;-76
2021/03/22 01:03:29;;;;;;;3.03;0.68;;;;;;;-0.38;100.00;91793.53;4990205;28;20050;-76
2021/03/22 01:05:56;;;;;;;1.23;0.57;;;;;;;-0.58;100.00;91784.03;4989998;28;20061;-77
2021/03/22 01:08:25;;;;;;;2.47;1.00;;;;;;;-0.51;100.00;91773.25;4989748;28;20046;-77
2021/03/22 01:10:55;;;;;;;2.95;0.95;;;;;;;-0.36;100.00;91773.97;4989780;28;20050;-76
2021/03/22 01:13:24;;;;;;;1.50;1.05;;;;;;;-0.31;100.00;91773.44;4990057;28;20047;-76
2021/03/22 01:15:50;;;;;;;0.98;0.80;;;;;;;-0.39;100.00;91766.75;4989796;28;20764;-76
2021/03/22 01:18:18;;;;;;;0.93;0.80;;;;;;;-0.21;100.00;91773.94;4989927;28;20050;-77
2021/03/22 01:20:47;;;;;;;1.90;0.90;;;;;;;-0.41;100.00;91766.94;4989910;28;20051;-76
2021/03/22 01:23:14;;;;;;;2.10;1.45;;;;;;;-0.23;100.00;91770.03;4989844;28;20054;-76
2021/03/22 01:25:41;;;;;;;1.35;1.00;;;;;;;-0.20;100.00;91767.91;4989631;28;20046;-76
2021/03/22 01:28:09;;;;;;;1.83;1.33;;;;;;;-0.12;100.00;91768.75;4989951;28;20128;-76
2021/03/22 01:30:40;;;;;;;2.03;1.17;;;;;;;-0.09;100.00;91761.59;4989647;28;20050;-76
2021/03/22 01:33:09;;;;;;;1.65;1.02;;;;;;;-0.06;100.00;91756.19;4989949;28;20137;-76
2021/03/22 01:35:36;;;;;;;1.20;0.63;;;;;;;-0.02;100.00;91756.63;4989895;28;20419;-76
2021/03/22 01:38:03;;;;;;;3.00;1.02;;;;;;;-0.13;100.00;91757.91;4989614;28;20499;-76
2021/03/22 01:40:53;;;;;;;1.00;0.75;;;;;;;-0.04;100.00;91750.97;4989497;28;20051;-76
2021/03/22 01:43:37;;;;;;;1.77;0.80;;;;;;;-0.15;100.00;91742.13;4989936;28;20046;-76
2021/03/22 01:46:04;;;;;;;0.70;0.50;;;;;;;-0.21;100.00;91736.06;4989755;28;20113;-76
2021/03/22 01:48:31;;;;;;;1.08;0.57;;;;;;;-0.22;100.00;91738.78;4989407;28;20518;-76
2021/03/22 01:50:58;;;;;;;0.90;0.82;;;;;;;-0.35;100.00;91735.19;4989411;28;20054;-76
2021/03/22 01:53:24;;;;;;;1.60;0.82;;;;;;;-0.24;100.00;91730.63;4989754;28;20054;-76
2021/03/22 01:55:51;;;;;;;1.15;0.63;;;;;;;-0.30;100.00;91727.06;4989420;28;20051;-76
2021/03/22 01:58:17;;;;;;;1.00;0.40;;;;;;;-0.24;100.00;91718.75;4989411;28;20061;-76
2021/03/22 02:00:44;;;;;;;;;;;;;;;-0.32;100.00;91729.75;4990064;28;20046;-76
2021/03/22 02:03:13;;;;;;;1.02;0.50;;;;;;;-0.42;100.00;91732.59;4989201;28;19926;-76
2021/03/22 02:05:42;;;;;;;2.92;1.02;;;;;;;-0.34;100.00;91733.41;4989358;28;20504;-77
2021/03/22 02:08:12;;;;;;;1.02;0.93;;;;;;;-0.41;100.00;91739.19;4989205;28;20496;-77
2021/03/22 02:10:40;;;;;;;1.52;0.98;;;;;;;-0.55;100.00;91713.03;4989310;28;20487;-77
2021/03/22 02:13:07;;;;;;;5.97;1.42;;;;;;;-0.24;100.00;91751.56;4989295;28;20051;-77
2021/03/22 02:15:35;;;;;;;1.77;0.77;;;;;;;-0.27;100.00;91741.84;4988939;28;20222;-77
2021/03/22 02:18:08;;;;;;;0.93;0.70;;;;;;;-0.22;100.00;91728.69;4989345;28;20051;-77
2021/03/22 02:21:12;;;;;;;1.90;1.02;;;;;;;-0.26;100.00;91710.59;4989141;28;20050;-77
2021/03/22 02:24:30;;;;;;;1.70;0.60;;;;;;;-0.39;100.00;91720.56;4989185;28;20444;-77
2021/03/22 02:27:38;;;;;;;2.05;1.42;;;;;;;-0.54;100.00;91696.19;4989149;28;20051;-77
2021/03/22 04:09:40;;;;;;;5.93;2.55;;;;;;;0.06;100.00;91658.03;4952290;29;20057;-79
2021/03/22 04:12:07;;;;;;;4.93;2.45;;;;;;;0.11;100.00;91662.53;4951952;28;20051;-80
2021/03/22 04:14:34;;;;;;;2.97;2.05;;;;;;;0.19;100.00;91649.75;4952278;28;20044;-80
2021/03/22 04:17:00;;;;;;;2.40;1.52;;;;;;;0.24;100.00;91644.94;4952294;28;20432;-79
2021/03/22 04:19:26;;;;;;;;;;;;;;;0.26;100.00;91632.13;4952714;28;20062;-80
2021/03/22 04:21:53;;;;;;;2.65;2.03;;;;;;;-0.02;100.00;91626.13;4952149;28;19923;-79
2021/03/22 04:24:21;;;;;;;2.65;1.75;;;;;;;-0.11;100.00;91628.97;4952337;28;20054;-79
2021/03/22 04:26:48;;;;;;;2.72;1.92;;;;;;;0.09;100.00;91656.91;4952122;28;20051;-79
2021/03/22 04:29:14;;;;;;;2.90;1.27;;;;;;;-0.03;100.00;91634.69;4951698;28;20060;-79
2021/03/22 04:31:41;;;;;;;2.33;1.48;;;;;;;-0.27;100.00;91618.22;4951833;28;20051;-79
2021/03/22 04:34:07;;;;;;;6.75;2.72;;;;;;;-0.11;100.00;91622.19;4951823;28;20056;-78
2021/03/22 04:36:36;;;;;;;5.53;2.80;;;;;;;-0.05;100.00;91618.94;4951824;28;20051;-79
2021/03/22 04:39:04;;;;;;;3.90;2.35;;;;;;;0.10;100.00;91631.44;4951942;28;20055;-78
2021/03/22 04:41:30;;;;;;;4.32;2.17;;;;;;;0.14;100.00;91629.34;4951505;28;20102;-78
2021/03/22 04:43:58;;;;;;;10.15;2.45;;;;;;;0.15;100.00;91630.91;4951618;28;20051;-78
2021/03/22 04:46:24;;;;;;;5.25;2.92;;;;;;;0.11;100.00;91635.53;4951867;28;20409;-79
2021/03/22 04:48:50;;;;;;;;;;;;;;;0.15;100.00;91635.94;4952033;28;20055;-79
2021/03/22 04:51:16;;;;;;;3.97;2.03;;;;;;;0.09;100.00;91634.16;4951528;28;19926;-79
2021/03/22 04:53:42;;;;;;;;;;;;;;;0.10;100.00;91644.06;4951857;28;20078;-79
2021/03/22 04:56:08;;;;;;;2.72;1.05;;;;;;;0.12;100.00;91636.31;4951680;28;20303;-79
2021/03/22 04:58:35;;;;;;;;;;;;;;;0.16;100.00;91639.25;4952002;28;20058;-78
2021/03/22 05:01:03;;;;;;;2.95;1.35;;;;;;;0.20;100.00;91655.59;4951466;28;20442;-78
2021/03/22 05:03:30;;;;;;;4.07;2.35;;;;;;;0.19;100.00;91652.28;4951654;28;20134;-79
2021/03/22 05:05:56;;;;;;;4.50;2.53;;;;;;;0.17;100.00;91654.22;4951554;28;20417;-79
2021/03/22 05:08:24;;;;;;;5.70;3.13;;;;;;;0.09;100.00;91637.47;4974858;28;20058;-79
2021/03/22 05:10:53;;;;;;;6.50;3.53;;;;;;;0.03;100.00;91638.19;4990082;28;20054;-79
2021/03/22 05:13:22;;;;;;;5.57;4.95;;;;;;;0.04;100.00;91627.13;4989945;28;20058;-79
2021/03/22 05:15:48;;;;;;;6.75;3.03;;;;;;;0.11;100.00;91648.16;4989760;28;20499;-79
2021/03/22 05:18:16;;;;;;;9.18;3.42;;;;;;;0.20;100.00;91660.63;4989774;28;20455;-80
2021/03/22 05:20:45;;;;;;;5.78;2.72;;;;;;;0.03;100.00;91639.94;4989742;28;20054;-80
2021/03/22 05:23:14;;;;;;;8.80;3.55;;;;;;;0.17;100.00;91654.22;4989929;28;20324;-81
2021/03/22 05:25:40;;;;;;;7.38;4.10;;;;;;;0.32;100.00;91658.38;4989624;28;20046;-82
2021/03/22 05:28:07;;;;;;;;;;;;;;;0.32;100.00;91661.69;4990113;28;20492;-82
2021/03/22 05:30:34;;;;;;;;;;;;;;;0.35;100.00;91658.78;4990039;28;19969;-82
2021/03/22 05:33:01;;;;;;;;;;;;;;;0.31;100.00;91669.44;4990464;28;19922;-80
2021/03/22 05:35:29;;;;;;;;;;;;;;;0.45;100.00;91662.72;4990075;28;19922;-80
2021/03/22 05:37:56;;;;;;;;;;;;;;;0.31;100.00;91656.81;4990351;28;19928;-80
2021/03/22 05:40:23;;;;;;;;;;;;;;;0.40;100.00;91660.75;4990153;28;19925;-81
2021/03/22 05:42:55;;;;;;;;;;;;;;;0.49;100.00;91662.19;4990291;28;20008;-81
2021/03/22 05:45:29;;;;;;;;;;;;;;;0.57;100.00;91673.09;4989895;28;19926;-80
2021/03/22 05:48:00;;;;;;;;;;;;;;;0.71;100.00;91672.19;4990164;28;19969;-79
2021/03/22 05:50:31;;;;;;;;;;;;;;;0.70;100.00;91679.97;4986750;28;19925;-79
2021/03/22 05:53:05;;;;;;;;;;;;;;;0.65;100.00;91676.25;4988268;28;19928;-79
2021/03/22 05:55:47;;;;;;;;;;;;;;;0.47;100.00;91678.47;4989094;28;19926;-79
2021/03/22 05:58:25;;;;;;;;;;;;;;;0.29;100.00;91678.94;4989519;28;19933;-79
2021/03/22 06:00:54;;;;;;;;;;;;;;;-0.02;100.00;91686.72;4990003;28;20380;-77
2021/03/22 06:03:23;;;;;;;;;;;;;;;0.06;100.00;91680.75;4990091;28;19928;-79
2021/03/22 06:05:56;;;;;;;;;;;;;;;0.10;100.00;91681.94;4991423;28;20362;-79
2021/03/22 06:08:28;;;;;;;;;;;;;;;0.25;100.00;91689.44;4993744;28;20020;-80
2021/03/22 06:10:55;;;;;;;;;;;;;;;0.22;100.00;91689.78;4993624;28;19921;-78
2021/03/22 06:13:23;;;;;;;;;;;;;;;0.29;100.00;91692.38;4993756;28;19929;-80
2021/03/22 06:15:53;;;;;;;;;;;;;;;0.31;100.00;91695.47;4993743;28;19921;-80
2021/03/22 06:18:22;;;;;;;;;;;;;;;0.05;100.00;91689.28;4993621;28;19941;-79
2021/03/22 06:20:51;;;;;;;;;;;;;;;0.03;100.00;91693.75;4993506;28;19929;-79
2021/03/22 06:23:20;;;;;;;;;;;;;;;-0.24;100.00;91685.19;4993298;28;19922;-78
2021/03/22 06:25:46;;;;;;;;;;;;;;;-0.16;100.00;91685.84;4993500;28;20020;-78
2021/03/22 06:28:17;;;;;;;;;;;;;;;-0.06;100.00;91692.31;4993191;28;19932;-78
2021/03/22 06:30:51;;;;;;;;;;;;;;;-0.08;100.00;91697.56;4993402;28;19926;-78
2021/03/22 06:33:24;;;;;;;;;;;;;;;-0.10;100.00;91693.66;4993449;28;19937;-77
2021/03/22 06:35:50;;;;;;;;;;;;;;;-0.28;100.00;91693.13;4992954;28;19932;-77
2021/03/22 06:38:16;;;;;;;;;;;;;;;-0.18;100.00;91695.31;4992947;28;19926;-77
2021/03/22 06:40:43;;;;;;;;;;;;;;;-0.27;100.00;91704.00;4993072;28;19950;-78
2021/03/22 06:43:11;;;;;;;;;;;;;;;-0.27;100.00;91699.72;4992928;28;19968;-78
2021/03/22 06:45:38;;;;;;;;;;;;;;;-0.25;100.00;91694.50;4993226;28;20027;-78
2021/03/22 06:48:27;;;;;;;;;;;;;;;-0.07;100.00;91695.78;4992750;28;19925;-78
2021/03/22 06:51:14;;;;;;;;;;;;;;;0.03;100.00;91703.03;4977818;28;19922;-78
2021/03/22 06:53:42;;;;;;;;;;;;;;;0.34;100.00;91706.97;4992817;28;19922;-78
2021/03/22 06:56:25;;;;;;;;;;;;;;;0.50;100.00;91696.56;4992894;28;20441;-78
2021/03/22 06:59:07;;;;;;;;;;;;;;;0.35;100.00;91694.16;4992700;28;20303;-80
2021/03/22 07:01:33;;;;;;;;;;;;;;;0.43;100.00;91678.06;4992435;28;19921;-79
2021/03/22 07:04:16;;;;;;;;;;;;;;;0.53;100.00;91680.25;4992665;28;19925;-81
2021/03/22 07:06:42;;;;;;;;;;;;;;;0.52;100.00;91689.56;4992326;28;19937;-81
2021/03/22 07:09:28;;;;;;;;;;;;;;;0.72;100.00;91690.66;4992315;28;19953;-82
2021/03/22 07:11:54;;;;;;;;;;;;;;;0.68;100.00;91704.66;4992797;28;19933;-81
2021/03/22 07:14:23;;;;;;;;;;;;;;;0.26;100.00;91713.72;4992214;28;19929;-84
2021/03/22 07:17:01;;;;;;;;;;;;;;;0.20;100.00;91719.50;4992314;28;19922;-82
2021/03/22 07:19:27;;;;;;;;;;;;;;;0.01;100.00;91725.19;4992157;28;19925;-82
2021/03/22 07:21:55;;;;;;;;;;;;;;;0.01;100.00;91730.22;4992313;28;19929;-82
2021/03/22 07:24:26;;;;;;;;;;;;;;;-0.18;100.00;91745.03;4992259;28;20330;-81
2021/03/22 07:27:07;;;;;;;;;;;;;;;-0.37;100.00;91746.41;4992230;28;19929;-82
2021/03/22 07:29:51;;;;;;;;;;;;;;;-0.41;100.00;91738.41;4992156;28;20284;-81
2021/03/22 07:32:32;;;;;;;;;;;;;;;-0.33;100.00;91738.28;4992159;28;19990;-82
2021/03/22 07:35:07;;;;;;;;;;;;;;;-0.14;100.00;91749.53;4989634;28;19925;-81
2021/03/22 07:37:37;;;;;;;;;;;;;;;-0.16;100.00;91736.31;4992040;28;20387;-81
2021/03/22 07:40:06;;;;;;;;;;;;;;;-0.07;100.00;91738.72;4991968;28;19921;-80
2021/03/22 07:42:37;;;;;;;;;;;;;;;0.12;100.00;91748.19;4991840;28;20330;-83
2021/03/22 07:45:21;;;;;;;;;;;;;;;0.51;100.00;91743.59;4991773;28;19922;-80
2021/03/22 07:47:55;;;;;;;;;;;;;;;0.82;100.00;91746.69;4991753;28;19926;-82
2021/03/22 07:50:23;;;;;;;;;;;;;;;0.56;100.00;91743.06;4991902;28;20351;-81
2021/03/22 07:52:53;;;;;;;;;;;;;;;0.03;100.00;91748.50;4991623;28;20016;-79
2021/03/22 07:55:34;;;;;;;;;;;;;;;0.11;100.00;91743.31;4991419;28;19948;-80
2021/03/22 07:58:04;;;;;;;;;;;;;;;0.19;100.00;91750.00;4991898;28;19929;-79
2021/03/22 08:00:35;;;;;;;;;;;;;;;0.17;100.00;91740.06;4992075;28;20319;-79
2021/03/22 08:03:11;;;;;;;;;;;;;;;0.42;100.00;91734.63;4991714;28;19926;-79
2021/03/22 08:05:44;;;;;;;;;;;;;;;0.64;100.00;91732.81;4991891;28;20272;-79
2021/03/22 08:08:15;;;;;;;;;;;;;;;1.17;100.00;91730.72;4991246;28;19926;-79
2021/03/22 08:10:48;;;;;;;;;;;;;;;1.26;100.00;91727.06;4991660;28;19928;-80
2021/03/22 08:13:26;;;;;;;;;;;;;;;1.15;100.00;91730.13;4991295;28;19933;-79
2021/03/22 08:15:55;;;;;;;;;;;;;;;0.78;100.00;91715.97;4991202;28;19958;-79
2021/03/22 08:18:26;;;;;;;;;;;;;;;1.08;100.00;91721.72;4991640;28;19922;-80
2021/03/22 08:20:59;;;;;;;;;;;;;;;1.36;100.00;91713.25;4986969;28;19929;-81
2021/03/22 08:23:29;;;;;;;;;;;;;;;1.39;100.00;91720.47;4990003;28;19922;-82
2021/03/22 08:25:57;;;;;;;;;;;;;;;1.49;100.00;91727.69;4990815;28;19921;-82
2021/03/22 08:28:26;;;;;;;;;;;;;;;1.95;100.00;91721.94;4990468;28;19928;-82
2021/03/22 08:30:59;;;;;;;;;;;;;;;1.43;100.00;91736.84;4990853;28;19921;-83
2021/03/22 08:33:29;;;;;;;;;;;;;;;1.04;100.00;91712.00;4991312;28;19969;-83
2021/03/22 08:36:00;;;;;;;;;;;;;;;0.95;100.00;91712.34;4991316;28;19925;-82
2021/03/22 08:38:37;;;;;;;;;;;;;;;0.71;100.00;91717.69;4990765;28;20409;-83
2021/03/22 08:41:04;;;;;;;;;;;;;;;0.58;100.00;91715.06;4990932;28;19926;-83
2021/03/22 08:43:35;;;;;;;;;;;;;;;0.85;100.00;91723.59;4990986;28;19925;-81
2021/03/22 08:46:07;;;;;;;;;;;;;;;0.96;100.00;91729.09;4990953;28;19945;-82
2021/03/22 08:48:33;;;;;;;;;;;;;;;1.10;100.00;91729.94;4990781;28;19922;-83
2021/03/22 08:51:03;;;;;;;;;;;;;;;1.04;100.00;91728.91;4990604;28;19926;-84
2021/03/22 08:53:33;;;;;;;;;;;;;;;0.97;100.00;91725.59;4989873;28;19921;-84
2021/03/22 08:56:01;;;;;;;;;;;;;;;1.40;100.00;91725.34;4990713;28;19933;-86
2021/03/22 08:58:31;;;;;;;;;;;;;;;1.62;100.00;91726.97;4990710;28;20279;-84
2021/03/22 09:01:17;;;;;;;;;;;;;;;1.38;100.00;91726.53;4990196;28;19968;-88
2021/03/22 09:03:44;;;;;;;;;;;;;;;1.62;100.00;91732.78;4990600;28;19922;-84
2021/03/22 09:06:15;;;;;;;;;;;;;;;1.77;100.00;91734.38;4993830;28;19956;-87
2021/03/22 09:08:42;;;;;;;;;;;;;;;1.41;100.00;91728.66;5009862;28;19925;-84
2021/03/22 09:11:25;;;;;;;;;;;;;;;1.44;100.00;91741.69;5009856;28;19948;-83
2021/03/22 09:13:52;;;;;;;;;;;;;;;1.46;100.00;91742.31;5010116;28;19925;-83
2021/03/22 09:16:36;;;;;;;;;;;;;;;1.33;100.00;91732.91;5010169;28;20375;-83
2021/03/22 09:19:04;;;;;;;;;;;;;;;0.99;100.00;91739.59;5009566;28;19922;-84
2021/03/22 09:21:31;;;;;;;;;;;;;;;0.66;100.00;91742.72;5009795;28;19933;-83
2021/03/22 09:23:57;;;;;;;;;;;;;;;0.40;100.00;91746.63;5009832;28;20004;-84
2021/03/22 09:26:38;;;;;;;;;;;;;;;0.37;100.00;91739.44;5009601;28;19928;-85
2021/03/22 09:29:23;;;;;;;;;;;;;;;0.39;100.00;91732.44;5009558;28;19921;-85
2021/03/22 09:31:49;;;;;;;;;;;;;;;0.23;100.00;91725.94;5009762;28;19926;-87
2021/03/22 09:34:39;;;;;;;;;;;;;;;0.54;100.00;91724.78;5009768;28;19928;-85
2021/03/22 09:37:24;;;;;;;;;;;;;;;0.92;100.00;91716.00;5009310;28;19921;-84
2021/03/22 09:39:51;;;;;;;;;;;;;;;1.48;100.00;91710.97;5011196;28;20796;-85
2021/03/22 09:42:23;;;;;;;;;;;;;;;1.57;100.00;91713.13;5014155;28;19932;-84
2021/03/22 09:45:20;;;;;;;;;;;;;;;1.86;100.00;91713.75;5013854;28;19932;-85
2021/03/22 09:48:03;;;;;;;;;;;;;;;1.58;100.00;91727.31;4952161;28;20413;-86
2021/03/22 09:50:30;;;;;;;;;;;;;;;1.49;100.00;91723.44;5003222;28;19930;-85
2021/03/22 09:53:13;;;;;;;;;;;;;;;1.48;100.00;91726.16;5012919;28;19932;-83
2021/03/22 09:55:45;;;;;;;;;;;;;;;1.78;100.00;91729.13;4996516;28;20399;-83
2021/03/22 09:58:19;;;;;;;;;;;;;;;1.80;100.00;91736.53;4993849;28;20361;-85
2021/03/22 10:00:49;;;;;;;;;;;;;;;1.92;100.00;91721.53;4993902;28;19926;-84
2021/03/22 10:03:33;;;;;;;;;;;;;;;1.71;100.00;91721.50;4993643;28;19929;-85
2021/03/22 10:06:01;;;;;;;;;;;;;;;1.88;100.00;91728.75;4993829;28;19931;-84
2021/03/22 10:08:28;;;;;;;;;;;;;;;1.99;100.00;91730.69;4993461;28;19968;-84
2021/03/22 10:10:56;;;;;;;;;;;;;;;1.97;100.00;91721.75;4993642;28;19925;-84
2021/03/22 10:13:26;;;;;;;;;;;;;;;1.96;100.00;91717.66;4993441;28;19965;-85
2021/03/22 10:15:57;;;;;;;;;;;;;;;2.11;100.00;91720.78;4993373;28;19968;-82
2021/03/22 10:18:36;;;;;;;;;;;;;;;2.06;100.00;91729.94;4993610;28;20029;-83
2021/03/22 10:21:13;;;;;;;;;;;;;;;2.27;100.00;91734.81;4993185;28;19921;-84
2021/03/22 10:23:45;;;;;;;;;;;;;;;2.34;100.00;91747.47;4993478;28;20036;-83
2021/03/22 10:26:16;;;;;;;;;;;;;;;2.03;100.00;91737.94;4993363;28;20024;-81
2021/03/22 10:28:43;;;;;;;;;;;;;;;1.59;100.00;91744.06;4993227;28;20413;-82
2021/03/22 10:31:16;;;;;;;;;;;;;;;1.80;100.00;91741.59;4993217;28;20405;-85
2021/03/22 10:33:46;;;;;;;;;;;;;;;1.88;100.00;91749.00;4993425;28;19968;-83
2021/03/22 10:36:22;;;;;;;;;;;;;;;1.89;100.00;91740.44;4993203;28;19928;-86
2021/03/22 10:38:50;;;;;;;;;;;;;;;1.62;100.00;91737.09;5012442;28;19921;-87
2021/03/22 10:41:25;;;;;;;;;;;;;;;1.15;100.00;91743.53;5012911;28;19925;-86
2021/03/22 10:43:54;;;;;;;;;;;;;;;1.30;100.00;91747.69;5012284;28;19925;-84
2021/03/22 10:46:22;;;;;;;;;;;;;;;1.10;100.00;91753.44;5013355;28;19927;-83
2021/03/22 10:48:59;;;;;;;;;;;;;;;0.89;100.00;91749.28;5012822;28;19921;-83
2021/03/22 10:51:34;;;;;;;;;;;;;;;0.69;100.00;91749.94;5011224;28;20420;-83
2021/03/22 10:54:01;;;;;;;;;;;;;;;0.61;100.00;91750.09;5012869;28;19937;-83
2021/03/22 10:56:31;;;;;;;;;;;;;;;0.67;100.00;91746.81;5012485;28;19925;-85
2021/03/22 10:58:59;;;;;;;;;;;;;;;0.45;100.00;91751.94;5012453;28;19922;-84
2021/03/22 11:01:32;;;;;;;;;;;;;;;0.70;100.00;91748.19;5012957;28;19928;-85
2021/03/22 11:04:01;;;;;;;;;;;;;;;0.36;100.00;91742.91;5017834;28;19925;-87
2021/03/22 11:06:32;;;;;;;;;;;;;;;0.33;100.00;91746.59;5023059;28;19940;-83
2021/03/22 11:09:00;;;;;;;;;;;;;;;0.09;100.00;91740.97;5023585;28;19921;-85
2021/03/22 11:11:28;;;;;;;;;;;;;;;0.02;100.00;91755.28;5028048;28;19997;-85
2021/03/22 11:13:55;;;;;;;;;;;;;;;0.10;100.00;91757.69;5023162;28;19922;-87
2021/03/22 11:16:23;;;;;;;;;;;;;;;0.23;100.00;91754.50;5012417;28;19971;-87
2021/03/22 11:18:51;;;;;;;;;;;;;;;0.43;100.00;91756.38;5011933;28;19972;-88
2021/03/22 11:21:18;;;;;;;;;;;;;;;0.63;100.00;91759.03;5012442;28;19922;-88
2021/03/22 11:23:45;;;;;;;;;;;;;;;0.68;100.00;91761.00;5012284;28;19925;-86
2021/03/22 11:26:17;;;;;;;;;;;;;;;0.85;100.00;91761.50;5012046;28;19931;-89
2021/03/22 11:28:43;;;;;;;;;;;;;;;1.17;100.00;91756.78;5012126;28;19940;-89
2021/03/22 11:31:17;;;;;;;;;;;;;;;1.10;100.00;91755.97;5011444;28;19928;-87
2021/03/22 11:33:48;;;;;;;;;;;;;;;1.02;100.00;91756.16;5011634;28;19927;-88
2021/03/22 11:36:15;;;;;;;;;;;;;;;0.98;100.00;91757.47;5004434;28;20413;-86
2021/03/22 11:38:51;;;;;;;;;;;;;;;1.31;100.00;91756.84;5009157;28;20396;-87
2021/03/22 11:41:31;;;;;;;;;;;;;;;1.10;100.00;91757.75;5010919;28;19922;-88
2021/03/22 11:44:01;;;;;;;;;;;;;;;1.00;100.00;91763.91;5011761;28;19921;-87
2021/03/22 11:46:28;;;;;;;;;;;;;;;1.11;100.00;91766.88;5003774;28;20318;-86
2021/03/22 11:48:54;;;;;;;;;;;;;;;0.95;100.00;91755.31;5002603;28;19936;-88
2021/03/22 11:51:21;;;;;;;;;;;;;;;0.83;100.00;91767.72;5001624;28;19960;-87
2021/03/22 11:54:00;;;;;;;;;;;;;;;0.74;100.00;91767.84;5001278;28;19968;-86
2021/03/22 11:56:28;;;;;;;;;;;;;;;0.53;100.00;91772.00;4998809;28;19925;-87
2021/03/22 11:59:06;;;;;;;;;;;;;;;0.38;100.00;91782.19;5001351;28;19925;-86
2021/03/22 12:01:36;;;;;;;;;;;;;;;0.52;100.00;91782.28;4999727;28;20379;-87
2021/03/22 12:04:17;;;;;;;;;;;;;;;0.64;100.00;91785.06;4999100;28;20015;-87
2021/03/22 12:06:58;;;;;;;;;;;;;;;0.64;100.00;91788.41;5002012;28;19925;-87
2021/03/22 12:09:25;;;;;;;;;;;;;;;0.82;100.00;91789.66;4999656;28;19921;-89
2021/03/22 12:11:52;;;;;;;;;;;;;;;0.72;100.00;91779.91;5000216;28;19976;-87
2021/03/22 12:14:18;;;;;;;;;;;;;;;0.57;100.00;91787.59;4999702;28;19948;-87
2021/03/22 12:16:45;;;;;;;;;;;;;;;0.52;100.00;91792.41;5002075;28;20095;-86
2021/03/22 12:19:17;;;;;;;;;;;;;;;0.53;100.00;91794.75;4999885;28;20286;-87
2021/03/22 12:21:43;;;;;;;;;;;;;;;0.48;100.00;91794.53;4999705;28;20366;-84
2021/03/22 12:24:12;;;;;;;;;;;;;;;0.52;100.00;91794.94;5001249;28;19953;-85
2021/03/22 12:26:38;;;;;;;;;;;;;;;0.29;100.00;91797.66;5000536;28;19925;-85
2021/03/22 12:29:33;;;;;;;;;;;;;;;0.48;100.00;91799.56;5009492;28;19967;-85
2021/03/22 12:32:00;;;;;;;;;;;;;;;0.44;100.00;91800.91;5005493;28;19921;-84
2021/03/22 12:34:26;;;;;;;;;;;;;;;0.45;100.00;91794.88;5010858;28;19925;-86
2021/03/22 12:36:52;;;;;;;;;;;;;;;0.52;100.00;91797.47;5005915;28;19922;-86
2021/03/22 12:39:21;;;;;;;;;;;;;;;0.49;100.00;91800.34;5010012;28;19929;-85
2021/03/22 12:41:48;;;;;;;;;;;;;;;0.69;100.00;91792.13;5010462;28;20397;-87
2021/03/22 12:44:14;;;;;;;;;;;;;;;0.59;100.00;91793.22;5009936;28;19925;-86
2021/03/22 12:46:40;;;;;;;;;;;;;;;0.74;100.00;91798.19;5010028;28;19967;-85
2021/03/22 12:49:07;;;;;;;;;;;;;;;0.68;100.00;91798.16;5010424;28;20280;-86
2021/03/22 12:51:36;;;;;;;;;;;;;;;0.62;100.00;91787.03;4999126;28;19997;-85
2021/03/22 12:54:02;;;;;;;;;;;;;;;0.79;100.00;91793.34;5010695;28;19929;-86
2021/03/22 12:56:31;;;;;;;;;;;;;;;1.07;100.00;91806.94;5010868;28;20000;-86
2021/03/22 12:58:57;;;;;;;;;;;;;;;1.16;100.00;91795.69;5009938;28;19921;-85
2021/03/22 13:01:24;;;;;;;;;;;;;;;1.17;100.00;91806.59;5010353;28;19921;-86
2021/03/22 13:03:50;;;;;;;;;;;;;;;1.05;100.00;91812.19;5009209;28;19925;-86
2021/03/22 13:06:19;;;;;;;;;;;;;;;1.11;100.00;91802.28;5008851;28;19922;-85
2021/03/22 13:08:45;;;;;;;;;;;;;;;0.78;100.00;91817.06;5009949;28;20004;-84
2021/03/22 13:11:16;;;;;;;;;;;;;;;0.56;100.00;91811.28;5010062;28;19925;-86
2021/03/22 13:13:58;;;;;;;;;;;;;;;0.63;100.00;91807.06;5009382;28;19951;-84
2021/03/22 13:16:26;;;;;;;;;;;;;;;0.93;100.00;91806.84;5009804;28;19921;-84
2021/03/22 13:19:08;;;;;;;;;;;;;;;;;;;;;
2021/03/22 13:21:35;;;;;;;;;;;;;;;1.09;100.00;91809.25;5009813;28;19932;-84
2021/03/22 13:24:01;;;;;;;;;;;;;;;1.10;100.00;91818.44;5009466;28;19928;-84
2021/03/22 13:26:28;;;;;;;;;;;;;;;1.16;100.00;91810.09;5009597;28;19971;-84
2021/03/22 13:28:55;;;;;;;;;;;;;;;1.19;100.00;91807.19;5009678;28;19922;-84
2021/03/22 13:31:22;;;;;;;;;;;;;;;1.17;100.00;91821.78;5002880;28;19922;-84
2021/03/22 13:33:49;;;;;;;;;;;;;;;1.19;100.00;91822.34;4990032;28;20005;-84
2021/03/22 13:36:16;;;;;;;;;;;;;;;1.14;100.00;91829.72;4990166;28;19922;-83
2021/03/22 13:38:46;;;;;;;;;;;;;;;0.98;100.00;91830.81;4990522;28;19984;-81
2021/03/22 13:41:20;;;;;;;;;;;;;;;1.02;100.00;91822.66;4990137;28;19921;-82
2021/03/22 13:43:48;;;;;;;;;;;;;;;0.92;100.00;91828.06;4986701;28;19922;-82
2021/03/22 13:46:14;;;;;;;;;;;;;;;0.63;100.00;91824.75;4987927;28;20008;-82
2021/03/22 13:48:40;;;;;;;;;;;;;;;0.63;100.00;91829.00;4990250;28;19922;-83
2021/03/22 13:51:10;;;;;;;;;;;;;;;0.60;100.00;91830.16;4989790;28;20412;-83
2021/03/22 13:53:36;;;;;;;;;;;;;;;0.43;100.00;91836.44;4990182;28;19921;-83
2021/03/22 13:56:05;;;;;;;;;;;;;;;0.49;100.00;91838.22;4989940;28;20323;-83
2021/03/22 13:58:33;;;;;;;;;;;;;;;0.55;100.00;91839.25;4989614;28;19932;-83
2021/03/22 14:01:05;;;;;;;;;;;;;;;0.66;100.00;91843.81;4989958;28;19921;-84
2021/03/22 14:03:34;;;;;;;;;;;;;;;0.80;100.00;91845.47;4989566;28;20284;-83
2021/03/22 14:06:00;;;;;;;;;;;;;;;0.65;100.00;91844.78;4989642;28;19929;-81
2021/03/22 14:08:26;;;;;;;;;;;;;;;0.52;100.00;91853.03;4989843;28;19976;-81
2021/03/22 14:10:52;;;;;;;;;;;;;;;0.49;100.00;91853.38;4989564;28;19922;-81
2021/03/22 14:13:22;;;;;;;;;;;;;;;0.32;100.00;91862.97;5000359;28;19921;-82
2021/03/22 14:15:49;;;;;;;;;;;;;;;0.45;100.00;91865.59;5008493;28;19921;-83
2021/03/22 14:18:20;;;;;;;;;;;;;;;0.65;100.00;91865.00;5009193;28;20277;-82
2021/03/22 14:20:46;;;;;;;;;;;;;;;0.71;100.00;91873.59;5009330;28;20405;-81
2021/03/22 14:23:14;;;;;;;;;;;;;;;0.38;100.00;91873.13;5009548;28;19925;-81